Aviation Digital Data Service (ADDS)

Output produced by METARs form (0839 UTC 24 March 2019)
found at http://www.aviationweather.gov/metar/data/
 
Forecast for: UGSB (BATUMI , GE)
Text: TAF UGSB 240500Z 2406/2506 22010KT 8000 -RA SCT012 BKN025 TX09/2411Z TN04/2502Z
Forecast period: 0600 UTC 24 March 2019 to 0600 UTC 25 March 2019
Forecast type: FROM: standard forecast or significant change
Winds: from the SW (220 degrees) at 12 MPH (10 knots; 5.1 m/s)
Visibility: 5 miles (8 km)
Ceiling: 2500 feet AGL
Clouds: scattered clouds at 1200 feet AGL
broken clouds at 2500 feet AGL
Weather: -RA  (light rain)
Text: TEMPO 2406/2414 23020KT 3000 SHRA BKN007CB OVC020
Forecast period: 0600 to 1400 UTC 24 March 2019
Forecast type: TEMPORARY: The following changes expected for less than half the time period
Winds: from the SW (230 degrees) at 23 MPH (20 knots; 10.3 m/s)
Visibility: 1.86 miles (2.99 km)
Ceiling: 700 feet AGL
Clouds: broken clouds at 700 feet AGL
overcast cloud deck at 2000 feet AGL
Weather: SHRA  (rain showers)
Text: TEMPO 2418/2506 13010KT
Forecast period: 1800 UTC 24 March 2019 to 0600 UTC 25 March 2019
Forecast type: TEMPORARY: The following changes expected for less than half the time period
Winds: from the SE (130 degrees) at 12 MPH (10 knots; 5.1 m/s)
Visibility: missing
Ceiling: unknown
Clouds: missing
Weather: no significant weather forecast for this period